sensor_id;sensor_type;location;lat;lon;timestamp;pressure;altitude;pressure_sealevel;temperature;humidity
68822;BME280;55834;50.870;4.606;2023-03-01T00:01:32;102328.66;;;-2.54;49.31
68822;BME280;55834;50.870;4.606;2023-03-01T00:03:58;102321.13;;;-2.33;49.16
68822;BME280;55834;50.870;4.606;2023-03-01T00:06:24;102333.97;;;-2.85;49.54
68822;BME280;55834;50.870;4.606;2023-03-01T00:08:50;102327.16;;;-2.83;50.23
68822;BME280;55834;50.870;4.606;2023-03-01T00:11:21;102332.13;;;-2.88;50.34
68822;BME280;55834;50.870;4.606;2023-03-01T00:13:48;102326.75;;;-3.24;51.45
68822;BME280;55834;50.870;4.606;2023-03-01T00:16:18;102327.22;;;-3.47;51.68
68822;BME280;55834;50.870;4.606;2023-03-01T00:18:43;102328.78;;;-3.18;50.58
68822;BME280;55834;50.870;4.606;2023-03-01T00:21:09;102321.94;;;-2.85;50.60
68822;BME280;55834;50.870;4.606;2023-03-01T00:23:35;102317.53;;;-2.19;49.13
68822;BME280;55834;50.870;4.606;2023-03-01T00:26:01;102326.03;;;-3.37;51.67
68822;BME280;55834;50.870;4.606;2023-03-01T00:28:26;102326.13;;;-4.13;53.38
68822;BME280;55834;50.870;4.606;2023-03-01T00:30:52;102324.13;;;-3.88;52.56
68822;BME280;55834;50.870;4.606;2023-03-01T00:33:18;102314.97;;;-3.82;52.56
68822;BME280;55834;50.870;4.606;2023-03-01T00:35:43;102309.78;;;-3.51;52.36
68822;BME280;55834;50.870;4.606;2023-03-01T00:38:08;102310.84;;;-3.48;51.88
68822;BME280;55834;50.870;4.606;2023-03-01T00:40:35;102313.59;;;-4.07;54.20
68822;BME280;55834;50.870;4.606;2023-03-01T00:43:01;102311.41;;;-3.53;52.50
68822;BME280;55834;50.870;4.606;2023-03-01T00:45:27;102302.59;;;-3.88;53.66
68822;BME280;55834;50.870;4.606;2023-03-01T00:47:53;102304.81;;;-3.16;52.16
68822;BME280;55834;50.870;4.606;2023-03-01T00:50:19;102311.19;;;-3.25;52.03
68822;BME280;55834;50.870;4.606;2023-03-01T00:52:45;102312.94;;;-4.62;55.37
68822;BME280;55834;50.870;4.606;2023-03-01T00:55:11;102306.00;;;-3.89;53.02
68822;BME280;55834;50.870;4.606;2023-03-01T00:57:37;102313.88;;;-4.47;55.18
68822;BME280;55834;50.870;4.606;2023-03-01T01:00:05;102321.41;;;-5.08;57.06
68822;BME280;55834;50.870;4.606;2023-03-01T01:02:34;102320.06;;;-4.73;56.00
68822;BME280;55834;50.870;4.606;2023-03-01T01:05:00;102317.06;;;-4.36;55.59
68822;BME280;55834;50.870;4.606;2023-03-01T01:07:25;102313.00;;;-4.47;55.89
68822;BME280;55834;50.870;4.606;2023-03-01T01:09:50;102308.06;;;-4.28;55.32
68822;BME280;55834;50.870;4.606;2023-03-01T01:12:16;102310.66;;;-3.98;54.86
68822;BME280;55834;50.870;4.606;2023-03-01T01:14:41;102309.41;;;-4.35;55.44
68822;BME280;55834;50.870;4.606;2023-03-01T01:17:06;102310.31;;;-4.34;55.65
68822;BME280;55834;50.870;4.606;2023-03-01T01:19:32;102315.69;;;-4.89;56.37
68822;BME280;55834;50.870;4.606;2023-03-01T01:21:57;102309.59;;;-5.32;58.04
68822;BME280;55834;50.870;4.606;2023-03-01T01:24:22;102296.44;;;-4.66;55.91
68822;BME280;55834;50.870;4.606;2023-03-01T01:26:48;102302.44;;;-4.95;57.21
68822;BME280;55834;50.870;4.606;2023-03-01T01:29:13;102298.59;;;-5.02;57.12
68822;BME280;55834;50.870;4.606;2023-03-01T01:31:40;102298.91;;;-5.25;57.74
68822;BME280;55834;50.870;4.606;2023-03-01T01:34:08;102295.56;;;-5.09;57.67
68822;BME280;55834;50.870;4.606;2023-03-01T01:36:33;102288.16;;;-4.90;56.74
68822;BME280;55834;50.870;4.606;2023-03-01T01:38:59;102286.59;;;-5.16;57.37
68822;BME280;55834;50.870;4.606;2023-03-01T01:41:26;102289.78;;;-5.20;57.60
68822;BME280;55834;50.870;4.606;2023-03-01T01:46:44;102287.56;;;-4.56;55.83
68822;BME280;55834;50.870;4.606;2023-03-01T01:54:41;102283.22;;;-5.00;57.01
68822;BME280;55834;50.870;4.606;2023-03-01T01:57:12;102269.88;;;-5.23;57.91
68822;BME280;55834;50.870;4.606;2023-03-01T01:59:40;102276.69;;;-5.23;57.82
68822;BME280;55834;50.870;4.606;2023-03-01T02:02:08;102264.44;;;-4.40;56.14
68822;BME280;55834;50.870;4.606;2023-03-01T02:04:33;102266.59;;;-4.47;55.59
68822;BME280;55834;50.870;4.606;2023-03-01T02:07:08;102251.28;;;-4.74;56.18
68822;BME280;55834;50.870;4.606;2023-03-01T02:09:38;102251.91;;;-4.63;56.00
68822;BME280;55834;50.870;4.606;2023-03-01T02:12:05;102245.53;;;-3.62;53.71
68822;BME280;55834;50.870;4.606;2023-03-01T02:14:30;102241.72;;;-3.85;54.15
68822;BME280;55834;50.870;4.606;2023-03-01T02:16:56;102232.16;;;-3.38;52.70
68822;BME280;55834;50.870;4.606;2023-03-01T02:20:04;102238.56;;;-4.41;55.48
68822;BME280;55834;50.870;4.606;2023-03-01T02:22:34;102235.81;;;-4.89;57.02
68822;BME280;55834;50.870;4.606;2023-03-01T02:30:42;102220.78;;;-4.05;55.19
68822;BME280;55834;50.870;4.606;2023-03-01T02:33:29;102228.09;;;-4.59;55.36
68822;BME280;55834;50.870;4.606;2023-03-01T02:35:59;102213.53;;;-4.59;56.13
68822;BME280;55834;50.870;4.606;2023-03-01T02:38:25;102223.84;;;-4.73;56.55
68822;BME280;55834;50.870;4.606;2023-03-01T02:40:51;102217.69;;;-4.46;56.59
68822;BME280;55834;50.870;4.606;2023-03-01T02:43:19;102214.84;;;-4.36;55.38
68822;BME280;55834;50.870;4.606;2023-03-01T02:45:51;102204.69;;;-4.01;54.07
68822;BME280;55834;50.870;4.606;2023-03-01T02:48:18;102202.50;;;-3.12;52.08
68822;BME280;55834;50.870;4.606;2023-03-01T02:50:53;102208.66;;;-4.23;55.05
68822;BME280;55834;50.870;4.606;2023-03-01T02:53:48;102202.16;;;-3.69;53.50
68822;BME280;55834;50.870;4.606;2023-03-01T02:56:18;102200.84;;;-3.28;52.18
68822;BME280;55834;50.870;4.606;2023-03-01T02:58:44;102199.41;;;-3.39;52.03
68822;BME280;55834;50.870;4.606;2023-03-01T03:01:16;102208.72;;;-4.07;54.10
68822;BME280;55834;50.870;4.606;2023-03-01T03:03:42;102208.78;;;-3.57;53.12
68822;BME280;55834;50.870;4.606;2023-03-01T03:06:07;102191.09;;;-2.83;50.92
68822;BME280;55834;50.870;4.606;2023-03-01T03:08:33;102188.22;;;-3.05;51.41
68822;BME280;55834;50.870;4.606;2023-03-01T03:10:58;102208.84;;;-4.35;54.90
68822;BME280;55834;50.870;4.606;2023-03-01T03:13:24;102209.38;;;-5.29;57.41
68822;BME280;55834;50.870;4.606;2023-03-01T03:15:54;102202.91;;;-4.48;55.21
68822;BME280;55834;50.870;4.606;2023-03-01T03:18:21;102202.84;;;-4.94;56.82
68822;BME280;55834;50.870;4.606;2023-03-01T03:20:47;102204.00;;;-4.75;56.53
68822;BME280;55834;50.870;4.606;2023-03-01T03:23:12;102193.25;;;-4.97;57.78
68822;BME280;55834;50.870;4.606;2023-03-01T03:25:38;102202.22;;;-4.61;56.46
68822;BME280;55834;50.870;4.606;2023-03-01T03:28:04;102200.19;;;-4.66;56.47
68822;BME280;55834;50.870;4.606;2023-03-01T03:30:35;102202.31;;;-5.04;58.02
68822;BME280;55834;50.870;4.606;2023-03-01T03:33:01;102211.00;;;-5.31;58.09
68822;BME280;55834;50.870;4.606;2023-03-01T03:35:31;102212.44;;;-4.77;57.14
68822;BME280;55834;50.870;4.606;2023-03-01T03:37:58;102205.88;;;-4.87;56.77
68822;BME280;55834;50.870;4.606;2023-03-01T03:40:50;102209.81;;;-4.93;56.79
68822;BME280;55834;50.870;4.606;2023-03-01T03:43:16;102212.28;;;-4.50;55.63
68822;BME280;55834;50.870;4.606;2023-03-01T03:45:47;102205.72;;;-4.90;56.83
68822;BME280;55834;50.870;4.606;2023-03-01T03:48:13;102214.31;;;-5.04;57.44
68822;BME280;55834;50.870;4.606;2023-03-01T03:50:39;102214.72;;;-5.69;59.09
68822;BME280;55834;50.870;4.606;2023-03-01T03:53:08;102212.38;;;-4.93;57.09
68822;BME280;55834;50.870;4.606;2023-03-01T03:55:35;102190.31;;;-4.59;56.49
68822;BME280;55834;50.870;4.606;2023-03-01T03:58:05;102197.09;;;-4.90;56.89
68822;BME280;55834;50.870;4.606;2023-03-01T04:00:33;102193.81;;;-4.88;56.18
68822;BME280;55834;50.870;4.606;2023-03-01T04:02:59;102194.69;;;-4.72;57.03
68822;BME280;55834;50.870;4.606;2023-03-01T04:05:24;102193.88;;;-4.86;56.19
68822;BME280;55834;50.870;4.606;2023-03-01T04:07:50;102193.53;;;-5.07;56.98
68822;BME280;55834;50.870;4.606;2023-03-01T04:10:27;102189.44;;;-4.74;56.80
68822;BME280;55834;50.870;4.606;2023-03-01T04:12:52;102194.22;;;-4.80;57.51
68822;BME280;55834;50.870;4.606;2023-03-01T04:15:18;102180.72;;;-5.06;57.14
68822;BME280;55834;50.870;4.606;2023-03-01T04:17:45;102177.53;;;-4.72;57.23
68822;BME280;55834;50.870;4.606;2023-03-01T04:20:13;102175.00;;;-4.41;56.12
68822;BME280;55834;50.870;4.606;2023-03-01T04:22:39;102173.38;;;-4.85;57.14
68822;BME280;55834;50.870;4.606;2023-03-01T04:25:05;102168.56;;;-4.64;57.10
68822;BME280;55834;50.870;4.606;2023-03-01T04:27:33;102179.25;;;-4.26;55.65
68822;BME280;55834;50.870;4.606;2023-03-01T04:29:59;102176.31;;;-4.01;54.46
68822;BME280;55834;50.870;4.606;2023-03-01T04:32:24;102181.00;;;-4.25;54.86
68822;BME280;55834;50.870;4.606;2023-03-01T04:34:50;102179.53;;;-4.52;55.90
68822;BME280;55834;50.870;4.606;2023-03-01T04:37:15;102174.13;;;-4.71;56.78
68822;BME280;55834;50.870;4.606;2023-03-01T04:39:41;102181.28;;;-4.82;56.69
68822;BME280;55834;50.870;4.606;2023-03-01T04:42:11;102178.53;;;-4.85;56.43
68822;BME280;55834;50.870;4.606;2023-03-01T04:44:37;102180.66;;;-4.92;57.42
68822;BME280;55834;50.870;4.606;2023-03-01T04:47:02;102179.59;;;-5.11;57.70
68822;BME280;55834;50.870;4.606;2023-03-01T04:49:27;102172.91;;;-5.22;58.29
68822;BME280;55834;50.870;4.606;2023-03-01T04:51:53;102176.19;;;-5.25;58.91
68822;BME280;55834;50.870;4.606;2023-03-01T04:54:18;102165.84;;;-4.96;57.82
68822;BME280;55834;50.870;4.606;2023-03-01T04:56:43;102174.81;;;-5.48;59.24
68822;BME280;55834;50.870;4.606;2023-03-01T04:59:09;102162.59;;;-4.78;56.59
68822;BME280;55834;50.870;4.606;2023-03-01T05:01:35;102162.78;;;-5.34;58.57
68822;BME280;55834;50.870;4.606;2023-03-01T05:04:02;102168.28;;;-5.42;58.54
68822;BME280;55834;50.870;4.606;2023-03-01T05:06:28;102158.72;;;-5.01;57.24
68822;BME280;55834;50.870;4.606;2023-03-01T05:08:53;102162.47;;;-6.09;60.83
68822;BME280;55834;50.870;4.606;2023-03-01T05:11:19;102166.63;;;-6.25;61.86
68822;BME280;55834;50.870;4.606;2023-03-01T05:13:44;102159.34;;;-6.45;63.24
68822;BME280;55834;50.870;4.606;2023-03-01T05:16:10;102160.75;;;-5.96;61.19
68822;BME280;55834;50.870;4.606;2023-03-01T05:18:39;102172.53;;;-6.67;62.97
68822;BME280;55834;50.870;4.606;2023-03-01T05:21:11;102146.88;;;-6.26;62.40
68822;BME280;55834;50.870;4.606;2023-03-01T05:23:37;102151.59;;;-5.77;60.71
68822;BME280;55834;50.870;4.606;2023-03-01T05:26:05;102162.22;;;-6.81;63.28
68822;BME280;55834;50.870;4.606;2023-03-01T05:28:31;102152.94;;;-6.78;63.71
68822;BME280;55834;50.870;4.606;2023-03-01T05:30:57;102147.22;;;-6.61;63.45
68822;BME280;55834;50.870;4.606;2023-03-01T05:33:24;102152.13;;;-6.91;64.07
68822;BME280;55834;50.870;4.606;2023-03-01T05:35:50;102140.66;;;-5.88;61.14
68822;BME280;55834;50.870;4.606;2023-03-01T05:38:17;102134.06;;;-5.98;61.34
68822;BME280;55834;50.870;4.606;2023-03-01T05:40:44;102135.97;;;-5.80;60.28
68822;BME280;55834;50.870;4.606;2023-03-01T05:43:11;102137.19;;;-6.30;61.81
68822;BME280;55834;50.870;4.606;2023-03-01T05:45:38;102135.34;;;-6.32;62.61
68822;BME280;55834;50.870;4.606;2023-03-01T05:48:04;102133.59;;;-6.19;62.16
68822;BME280;55834;50.870;4.606;2023-03-01T05:50:33;102144.56;;;-6.08;61.19
68822;BME280;55834;50.870;4.606;2023-03-01T05:53:01;102129.16;;;-5.80;60.71
68822;BME280;55834;50.870;4.606;2023-03-01T05:55:29;102134.38;;;-5.35;58.92
68822;BME280;55834;50.870;4.606;2023-03-01T05:57:55;102134.63;;;-5.60;59.62
68822;BME280;55834;50.870;4.606;2023-03-01T06:00:21;102133.47;;;-4.77;57.31
68822;BME280;55834;50.870;4.606;2023-03-01T06:02:50;102146.13;;;-6.38;62.06
68822;BME280;55834;50.870;4.606;2023-03-01T06:05:17;102134.47;;;-6.05;62.11
68822;BME280;55834;50.870;4.606;2023-03-01T06:07:43;102136.66;;;-6.11;62.05
68822;BME280;55834;50.870;4.606;2023-03-01T06:10:10;102131.25;;;-5.88;60.82
68822;BME280;55834;50.870;4.606;2023-03-01T06:12:37;102137.34;;;-6.00;61.68
68822;BME280;55834;50.870;4.606;2023-03-01T06:15:05;102130.13;;;-5.20;58.61
68822;BME280;55834;50.870;4.606;2023-03-01T06:17:32;102122.19;;;-4.79;57.22
68822;BME280;55834;50.870;4.606;2023-03-01T06:19:58;102127.78;;;-5.45;59.17
68822;BME280;55834;50.870;4.606;2023-03-01T06:22:23;102124.06;;;-4.76;57.65
68822;BME280;55834;50.870;4.606;2023-03-01T06:24:49;102126.91;;;-4.86;57.54
68822;BME280;55834;50.870;4.606;2023-03-01T06:27:15;102117.91;;;-4.32;56.53
68822;BME280;55834;50.870;4.606;2023-03-01T06:29:40;102120.00;;;-5.02;57.98
68822;BME280;55834;50.870;4.606;2023-03-01T06:32:06;102120.88;;;-4.87;58.10
68822;BME280;55834;50.870;4.606;2023-03-01T06:34:32;102117.16;;;-5.22;58.34
68822;BME280;55834;50.870;4.606;2023-03-01T06:36:57;102115.72;;;-4.87;58.19
68822;BME280;55834;50.870;4.606;2023-03-01T06:39:23;102115.88;;;-4.38;56.08
68822;BME280;55834;50.870;4.606;2023-03-01T06:41:48;102118.75;;;-5.38;58.20
68822;BME280;55834;50.870;4.606;2023-03-01T06:44:13;102122.03;;;-5.41;58.46
68822;BME280;55834;50.870;4.606;2023-03-01T06:46:39;102109.94;;;-4.52;57.07
68822;BME280;55834;50.870;4.606;2023-03-01T06:49:05;102123.28;;;-4.90;57.27
68822;BME280;55834;50.870;4.606;2023-03-01T06:51:35;102122.84;;;-5.12;58.79
68822;BME280;55834;50.870;4.606;2023-03-01T06:54:00;102123.13;;;-5.23;58.84
68822;BME280;55834;50.870;4.606;2023-03-01T06:56:26;102130.31;;;-5.02;58.42
68822;BME280;55834;50.870;4.606;2023-03-01T06:58:51;102129.75;;;-5.26;58.50
68822;BME280;55834;50.870;4.606;2023-03-01T07:01:16;102140.22;;;-5.38;59.79
68822;BME280;55834;50.870;4.606;2023-03-01T07:03:42;102143.34;;;-5.14;59.48
68822;BME280;55834;50.870;4.606;2023-03-01T07:06:09;102130.22;;;-3.95;55.53
68822;BME280;55834;50.870;4.606;2023-03-01T07:08:34;102129.31;;;-4.43;56.54
68822;BME280;55834;50.870;4.606;2023-03-01T07:11:00;102134.22;;;-4.94;58.05
68822;BME280;55834;50.870;4.606;2023-03-01T07:13:27;102133.56;;;-4.90;57.44
68822;BME280;55834;50.870;4.606;2023-03-01T07:15:52;102134.97;;;-4.34;56.83
68822;BME280;55834;50.870;4.606;2023-03-01T07:18:18;102132.44;;;-4.49;57.71
68822;BME280;55834;50.870;4.606;2023-03-01T07:20:43;102134.72;;;-4.70;57.56
68822;BME280;55834;50.870;4.606;2023-03-01T07:23:09;102141.72;;;-4.36;57.08
68822;BME280;55834;50.870;4.606;2023-03-01T07:25:34;102130.91;;;-4.91;58.56
68822;BME280;55834;50.870;4.606;2023-03-01T07:28:00;102123.06;;;-4.32;56.48
68822;BME280;55834;50.870;4.606;2023-03-01T07:30:26;102133.31;;;-4.48;57.08
68822;BME280;55834;50.870;4.606;2023-03-01T07:32:56;102132.88;;;-4.87;58.06
68822;BME280;55834;50.870;4.606;2023-03-01T07:35:23;102126.38;;;-4.81;59.36
68822;BME280;55834;50.870;4.606;2023-03-01T07:37:48;102130.03;;;-3.98;56.04
68822;BME280;55834;50.870;4.606;2023-03-01T07:40:13;102133.19;;;-4.66;57.03
68822;BME280;55834;50.870;4.606;2023-03-01T07:42:39;102141.84;;;-4.95;58.42
68822;BME280;55834;50.870;4.606;2023-03-01T07:45:05;102140.09;;;-4.50;59.28
68822;BME280;55834;50.870;4.606;2023-03-01T07:47:31;102144.31;;;-3.72;56.20
68822;BME280;55834;50.870;4.606;2023-03-01T07:49:56;102138.50;;;-3.85;55.30
68822;BME280;55834;50.870;4.606;2023-03-01T07:52:21;102142.94;;;-3.98;56.94
68822;BME280;55834;50.870;4.606;2023-03-01T07:54:47;102135.91;;;-4.48;58.66
68822;BME280;55834;50.870;4.606;2023-03-01T07:57:12;102134.94;;;-3.70;55.04
68822;BME280;55834;50.870;4.606;2023-03-01T07:59:37;102140.03;;;-3.72;55.00
68822;BME280;55834;50.870;4.606;2023-03-01T08:02:03;102136.06;;;-3.65;55.32
68822;BME280;55834;50.870;4.606;2023-03-01T08:04:28;102135.41;;;-3.61;55.16
68822;BME280;55834;50.870;4.606;2023-03-01T08:06:54;102130.75;;;-2.65;53.53
68822;BME280;55834;50.870;4.606;2023-03-01T08:09:20;102137.53;;;-3.87;54.62
68822;BME280;55834;50.870;4.606;2023-03-01T08:11:45;102137.31;;;-3.75;55.56
68822;BME280;55834;50.870;4.606;2023-03-01T08:14:11;102143.56;;;-4.50;57.94
68822;BME280;55834;50.870;4.606;2023-03-01T08:16:37;102133.09;;;-3.89;56.14
68822;BME280;55834;50.870;4.606;2023-03-01T08:19:07;102140.84;;;-3.56;55.30
68822;BME280;55834;50.870;4.606;2023-03-01T08:21:32;102143.34;;;-3.58;55.15
68822;BME280;55834;50.870;4.606;2023-03-01T08:24:00;102136.88;;;-3.50;55.21
68822;BME280;55834;50.870;4.606;2023-03-01T08:26:26;102136.53;;;-3.23;53.83
68822;BME280;55834;50.870;4.606;2023-03-01T08:28:51;102139.44;;;-2.81;54.18
68822;BME280;55834;50.870;4.606;2023-03-01T08:31:28;102136.72;;;-2.31;51.66
68822;BME280;55834;50.870;4.606;2023-03-01T08:33:58;102125.56;;;-1.91;51.55
68822;BME280;55834;50.870;4.606;2023-03-01T08:36:31;102135.03;;;-3.85;54.83
68822;BME280;55834;50.870;4.606;2023-03-01T08:38:56;102129.94;;;-2.64;52.24
68822;BME280;55834;50.870;4.606;2023-03-01T08:41:22;102123.25;;;-2.95;53.27
68822;BME280;55834;50.870;4.606;2023-03-01T08:43:47;102138.81;;;-3.62;55.38
68822;BME280;55834;50.870;4.606;2023-03-01T08:46:13;102128.09;;;-2.85;53.98
68822;BME280;55834;50.870;4.606;2023-03-01T08:48:38;102109.16;;;-1.52;51.48
68822;BME280;55834;50.870;4.606;2023-03-01T08:51:09;102110.69;;;-2.52;52.66
68822;BME280;55834;50.870;4.606;2023-03-01T08:53:34;102106.91;;;-2.03;51.69
68822;BME280;55834;50.870;4.606;2023-03-01T08:56:00;102118.59;;;-3.20;54.25
68822;BME280;55834;50.870;4.606;2023-03-01T08:58:28;102105.81;;;-3.17;55.56
68822;BME280;55834;50.870;4.606;2023-03-01T09:00:54;102090.06;;;-2.32;52.71
68822;BME280;55834;50.870;4.606;2023-03-01T09:03:21;102091.75;;;-2.70;54.39
68822;BME280;55834;50.870;4.606;2023-03-01T09:05:47;102094.88;;;-2.40;53.23
68822;BME280;55834;50.870;4.606;2023-03-01T09:08:14;102085.94;;;-1.09;51.77
68822;BME280;55834;50.870;4.606;2023-03-01T09:10:39;102099.16;;;-1.64;50.30
68822;BME280;55834;50.870;4.606;2023-03-01T09:13:05;102095.25;;;-1.93;52.53
68822;BME280;55834;50.870;4.606;2023-03-01T09:15:30;102092.25;;;-2.03;52.02
68822;BME280;55834;50.870;4.606;2023-03-01T09:17:55;102090.16;;;-2.11;52.45
68822;BME280;55834;50.870;4.606;2023-03-01T09:20:20;102081.78;;;-2.43;53.46
68822;BME280;55834;50.870;4.606;2023-03-01T09:22:46;102079.97;;;-1.68;51.58
68822;BME280;55834;50.870;4.606;2023-03-01T09:25:12;102071.38;;;-0.62;49.33
68822;BME280;55834;50.870;4.606;2023-03-01T09:27:37;102081.38;;;-0.04;46.96
68822;BME280;55834;50.870;4.606;2023-03-01T09:30:03;102075.50;;;0.26;46.54
68822;BME280;55834;50.870;4.606;2023-03-01T09:32:32;102073.00;;;0.29;45.68
68822;BME280;55834;50.870;4.606;2023-03-01T09:34:58;102067.94;;;-0.83;47.21
68822;BME280;55834;50.870;4.606;2023-03-01T09:37:28;102054.41;;;-0.54;47.60
68822;BME280;55834;50.870;4.606;2023-03-01T09:39:54;102048.06;;;-0.15;46.20
68822;BME280;55834;50.870;4.606;2023-03-01T09:42:19;102041.00;;;-0.87;47.51
68822;BME280;55834;50.870;4.606;2023-03-01T09:44:51;102029.72;;;-1.10;49.28
68822;BME280;55834;50.870;4.606;2023-03-01T09:47:20;102026.06;;;0.49;46.34
68822;BME280;55834;50.870;4.606;2023-03-01T09:50:03;102017.69;;;0.83;44.50
68822;BME280;55834;50.870;4.606;2023-03-01T09:53:03;102028.19;;;-0.37;46.57
68822;BME280;55834;50.870;4.606;2023-03-01T09:55:44;102013.75;;;0.70;44.47
68822;BME280;55834;50.870;4.606;2023-03-01T09:58:41;102015.41;;;0.15;46.22
68822;BME280;55834;50.870;4.606;2023-03-01T10:04:45;102022.16;;;0.87;44.11
68822;BME280;55834;50.870;4.606;2023-03-01T10:07:21;102032.69;;;-0.33;46.42
68822;BME280;55834;50.870;4.606;2023-03-01T10:09:47;102028.88;;;0.55;44.43
68822;BME280;55834;50.870;4.606;2023-03-01T10:12:18;102017.97;;;0.92;42.70
68822;BME280;55834;50.870;4.606;2023-03-01T10:20:22;102025.16;;;1.28;43.49
68822;BME280;55834;50.870;4.606;2023-03-01T10:22:49;102022.31;;;-0.09;44.45
68822;BME280;55834;50.870;4.606;2023-03-01T10:28:07;102016.13;;;0.37;45.59
68822;BME280;55834;50.870;4.606;2023-03-01T10:30:37;102013.16;;;1.31;43.27
68822;BME280;55834;50.870;4.606;2023-03-01T10:33:16;102005.41;;;0.02;43.65
68822;BME280;55834;50.870;4.606;2023-03-01T10:35:43;101996.84;;;1.37;42.26
68822;BME280;55834;50.870;4.606;2023-03-01T10:38:11;101988.06;;;1.95;41.69
68822;BME280;55834;50.870;4.606;2023-03-01T10:43:15;102005.41;;;0.79;42.41
68822;BME280;55834;50.870;4.606;2023-03-01T10:45:40;101994.84;;;1.58;42.00
68822;BME280;55834;50.870;4.606;2023-03-01T10:48:25;101994.41;;;2.38;40.37
68822;BME280;55834;50.870;4.606;2023-03-01T10:56:22;101989.28;;;0.63;42.12
68822;BME280;55834;50.870;4.606;2023-03-01T10:59:03;101983.09;;;1.73;40.59
68822;BME280;55834;50.870;4.606;2023-03-01T11:01:32;101969.22;;;1.72;41.10
68822;BME280;55834;50.870;4.606;2023-03-01T11:06:33;101968.88;;;2.60;39.79
68822;BME280;55834;50.870;4.606;2023-03-01T11:09:21;101962.66;;;1.87;40.46
68822;BME280;55834;50.870;4.606;2023-03-01T11:11:52;101964.66;;;1.35;41.34
68822;BME280;55834;50.870;4.606;2023-03-01T11:14:24;101974.16;;;1.33;42.13
68822;BME280;55834;50.870;4.606;2023-03-01T11:17:13;101964.53;;;1.30;41.30
68822;BME280;55834;50.870;4.606;2023-03-01T11:19:39;101962.59;;;1.85;40.50
68822;BME280;55834;50.870;4.606;2023-03-01T11:22:12;101969.69;;;1.59;40.20
68822;BME280;55834;50.870;4.606;2023-03-01T11:24:44;101965.81;;;1.75;39.85
68822;BME280;55834;50.870;4.606;2023-03-01T11:27:32;101956.50;;;1.53;39.29
68822;BME280;55834;50.870;4.606;2023-03-01T11:30:18;101947.88;;;2.54;38.96
68822;BME280;55834;50.870;4.606;2023-03-01T11:32:57;101948.00;;;2.60;38.13
68822;BME280;55834;50.870;4.606;2023-03-01T11:35:27;101960.81;;;2.50;38.85
68822;BME280;55834;50.870;4.606;2023-03-01T11:40:26;101950.66;;;2.99;36.87
68822;BME280;55834;50.870;4.606;2023-03-01T11:51:46;101949.00;;;1.95;37.36
68822;BME280;55834;50.870;4.606;2023-03-01T11:57:00;101939.84;;;2.46;38.39
68822;BME280;55834;50.870;4.606;2023-03-01T12:03:34;101933.38;;;2.66;37.26
68822;BME280;55834;50.870;4.606;2023-03-01T12:10:57;101904.34;;;3.74;36.66
68822;BME280;55834;50.870;4.606;2023-03-01T12:20:11;101905.69;;;1.35;39.93
68822;BME280;55834;50.870;4.606;2023-03-01T12:22:53;101919.94;;;1.18;40.19
68822;BME280;55834;50.870;4.606;2023-03-01T12:25:39;101887.06;;;1.85;38.98
68822;BME280;55834;50.870;4.606;2023-03-01T12:50:51;101864.88;;;1.99;36.41
68822;BME280;55834;50.870;4.606;2023-03-01T12:53:24;101873.84;;;0.84;38.80
68822;BME280;55834;50.870;4.606;2023-03-01T12:55:52;101855.38;;;1.05;38.38
68822;BME280;55834;50.870;4.606;2023-03-01T12:58:32;101849.03;;;2.64;37.77
68822;BME280;55834;50.870;4.606;2023-03-01T13:11:58;101822.19;;;3.12;35.84
68822;BME280;55834;50.870;4.606;2023-03-01T13:16:51;101816.63;;;1.79;38.56
68822;BME280;55834;50.870;4.606;2023-03-01T13:19:19;101809.66;;;2.93;36.08
68822;BME280;55834;50.870;4.606;2023-03-01T13:21:47;101812.44;;;3.02;36.84
68822;BME280;55834;50.870;4.606;2023-03-01T13:24:40;101818.38;;;1.80;38.52
68822;BME280;55834;50.870;4.606;2023-03-01T13:29:50;101794.44;;;3.61;34.75
68822;BME280;55834;50.870;4.606;2023-03-01T13:32:27;101804.13;;;3.20;35.06
68822;BME280;55834;50.870;4.606;2023-03-01T13:34:55;101799.88;;;2.83;35.65
68822;BME280;55834;50.870;4.606;2023-03-01T13:37:24;101800.06;;;3.34;34.93
68822;BME280;55834;50.870;4.606;2023-03-01T13:39:51;101790.72;;;3.03;36.22
68822;BME280;55834;50.870;4.606;2023-03-01T13:44:54;101790.31;;;2.41;35.97
68822;BME280;55834;50.870;4.606;2023-03-01T13:47:20;101780.50;;;3.14;36.21
68822;BME280;55834;50.870;4.606;2023-03-01T13:49:48;101788.44;;;2.76;35.54
68822;BME280;55834;50.870;4.606;2023-03-01T13:52:43;101783.31;;;2.40;38.00
68822;BME280;55834;50.870;4.606;2023-03-01T13:57:53;101769.69;;;1.76;38.01
68822;BME280;55834;50.870;4.606;2023-03-01T14:03:11;101773.06;;;2.47;37.25
68822;BME280;55834;50.870;4.606;2023-03-01T14:05:39;101772.56;;;2.65;37.40
68822;BME280;55834;50.870;4.606;2023-03-01T14:08:19;101776.22;;;2.75;37.19
68822;BME280;55834;50.870;4.606;2023-03-01T14:10:53;101768.16;;;3.05;36.04
68822;BME280;55834;50.870;4.606;2023-03-01T14:18:52;101741.88;;;3.96;35.65
68822;BME280;55834;50.870;4.606;2023-03-01T14:21:22;101741.13;;;3.49;35.92
68822;BME280;55834;50.870;4.606;2023-03-01T14:23:48;101738.66;;;3.09;35.94
68822;BME280;55834;50.870;4.606;2023-03-01T14:26:21;101761.19;;;1.83;38.86
68822;BME280;55834;50.870;4.606;2023-03-01T14:28:47;101738.97;;;3.25;36.50
68822;BME280;55834;50.870;4.606;2023-03-01T14:31:35;101747.53;;;2.75;36.71
68822;BME280;55834;50.870;4.606;2023-03-01T14:34:02;101727.44;;;3.13;36.30
68822;BME280;55834;50.870;4.606;2023-03-01T14:36:29;101729.03;;;2.61;37.41
68822;BME280;55834;50.870;4.606;2023-03-01T14:38:55;101712.22;;;3.93;35.92
68822;BME280;55834;50.870;4.606;2023-03-01T14:41:25;101715.13;;;3.56;34.77
68822;BME280;55834;50.870;4.606;2023-03-01T14:43:57;101736.56;;;2.08;36.06
68822;BME280;55834;50.870;4.606;2023-03-01T14:46:36;101720.47;;;3.64;34.40
68822;BME280;55834;50.870;4.606;2023-03-01T14:49:04;101715.84;;;3.46;35.14
68822;BME280;55834;50.870;4.606;2023-03-01T14:51:40;101702.50;;;3.28;35.87
68822;BME280;55834;50.870;4.606;2023-03-01T14:54:23;101710.00;;;3.11;35.96
68822;BME280;55834;50.870;4.606;2023-03-01T14:56:50;101709.63;;;3.94;35.52
68822;BME280;55834;50.870;4.606;2023-03-01T14:59:21;101699.66;;;4.31;34.75